Time;durP1;ratioP1;P1;durP2;ratioP2;P2;SDS_P1;SDS_P2;PMS_P1;PMS_P2;Temp;Humidity;BMP_temperature;BMP_pressure;BME280_temperature;BME280_humidity;BME280_pressure;Samples;Min_cycle;Max_cycle;Signal;HPM_P1;HPM_P2
2022/09/05 00:00:09;;;;;;;2.38;1.50;;;20.00;90.30;;;;;;5019950;28;20042;-75
2022/09/05 00:02:39;;;;;;;2.75;1.83;;;20.00;90.50;;;;;;5018842;28;20046;-75
2022/09/05 00:05:32;;;;;;;3.55;1.70;;;20.00;90.60;;;;;;5020980;28;20052;-75
2022/09/05 00:08:06;;;;;;;2.85;1.70;;;20.00;90.70;;;;;;5009320;28;20563;-75
2022/09/05 00:10:53;;;;;;;2.75;1.80;;;19.90;90.80;;;;;;5019788;28;20059;-75
2022/09/05 00:13:27;;;;;;;;;;;19.90;91.00;;;;;;5019814;28;20138;-75
2022/09/05 00:16:34;;;;;;;3.75;1.88;;;19.90;91.40;;;;;;5017574;28;19918;-74
2022/09/05 00:19:19;;;;;;;4.50;1.70;;;19.80;91.10;;;;;;5017334;28;20087;-75
2022/09/05 00:22:05;;;;;;;2.40;1.75;;;19.80;91.10;;;;;;5021671;28;20080;-75
2022/09/05 00:24:58;;;;;;;4.32;1.70;;;19.80;91.30;;;;;;5016185;28;20461;-77
2022/09/05 00:27:59;;;;;;;3.75;2.05;;;19.70;91.40;;;;;;5015676;28;20053;-77
2022/09/05 00:30:28;;;;;;;4.13;1.83;;;19.80;91.60;;;;;;4939375;28;20050;-77
2022/09/05 00:33:09;;;;;;;3.25;2.13;;;19.70;91.60;;;;;;5002566;28;20053;-77
2022/09/05 00:35:34;;;;;;;4.30;1.98;;;19.70;91.80;;;;;;5017117;28;20037;-77
2022/09/05 00:38:12;;;;;;;4.00;2.13;;;19.70;91.70;;;;;;5021326;28;20515;-77
2022/09/05 00:40:48;;;;;;;3.70;2.00;;;19.60;91.80;;;;;;5020711;28;20435;-77
2022/09/05 00:43:21;;;;;;;3.15;1.90;;;19.70;91.90;;;;;;5009608;28;20317;-77
2022/09/05 00:45:58;;;;;;;3.55;1.90;;;19.60;91.90;;;;;;5014052;28;20132;-77
2022/09/05 00:48:27;;;;;;;4.55;1.88;;;19.60;92.00;;;;;;5020829;28;20045;-78
2022/09/05 00:51:31;;;;;;;2.75;1.85;;;19.60;92.10;;;;;;5022386;28;20041;-77
2022/09/05 00:54:22;;;;;;;3.10;1.63;;;19.60;92.20;;;;;;4983854;28;20081;-77
2022/09/05 00:57:12;;;;;;;3.10;2.10;;;19.50;92.40;;;;;;5018595;28;20029;-77
2022/09/05 00:59:56;;;;;;;4.40;1.98;;;19.50;92.60;;;;;;5017233;28;20109;-77
2022/09/05 01:02:30;;;;;;;3.53;1.90;;;19.50;92.60;;;;;;5018276;28;20471;-77
2022/09/05 01:05:05;;;;;;;3.78;2.25;;;19.50;92.50;;;;;;5018070;28;20712;-77
2022/09/05 01:08:07;;;;;;;5.25;2.80;;;19.50;92.60;;;;;;5014016;28;20120;-77
2022/09/05 01:10:50;;;;;;;3.45;1.85;;;19.50;92.70;;;;;;5017764;28;20046;-77
2022/09/05 01:13:27;;;;;;;3.70;1.92;;;19.40;92.80;;;;;;5025728;28;20406;-77
2022/09/05 01:16:21;;;;;;;3.60;1.60;;;19.40;92.80;;;;;;5022086;28;20084;-77
2022/09/05 01:19:04;;;;;;;3.78;2.10;;;19.40;93.00;;;;;;5018620;28;20399;-77
2022/09/05 01:22:05;;;;;;;2.85;2.00;;;19.40;93.00;;;;;;5026785;28;20053;-77
2022/09/05 01:25:00;;;;;;;3.60;2.40;;;19.40;93.00;;;;;;5008236;28;20074;-77
2022/09/05 01:27:49;;;;;;;3.85;2.22;;;19.30;93.10;;;;;;5027250;28;20045;-77
2022/09/05 01:30:39;;;;;;;2.90;1.73;;;19.30;93.20;;;;;;5022191;28;20124;-77
2022/09/05 01:33:33;;;;;;;3.58;2.22;;;19.30;93.20;;;;;;5021043;28;20112;-77
2022/09/05 01:36:08;;;;;;;3.10;1.90;;;19.20;93.40;;;;;;5021136;28;20479;-77
2022/09/05 01:38:52;;;;;;;6.65;2.40;;;19.20;93.50;;;;;;5025466;28;20056;-77
2022/09/05 01:41:38;;;;;;;2.92;2.17;;;19.20;93.70;;;;;;5027976;28;20041;-77
2022/09/05 01:44:27;;;;;;;2.78;1.77;;;19.20;93.70;;;;;;5026170;28;20096;-77
2022/09/05 01:47:05;;;;;;;4.25;2.42;;;19.10;93.90;;;;;;5021704;28;20045;-77
2022/09/05 01:49:54;;;;;;;5.25;2.53;;;19.10;93.90;;;;;;5022311;28;20510;-77
2022/09/05 01:52:56;;;;;;;4.28;2.40;;;19.00;94.10;;;;;;5022968;28;20046;-77
2022/09/05 01:55:48;;;;;;;2.78;2.10;;;19.00;94.10;;;;;;5023670;28;20044;-77
2022/09/05 01:58:26;;;;;;;5.28;2.70;;;19.00;94.10;;;;;;5024208;28;20495;-77
2022/09/05 02:01:10;;;;;;;5.55;2.40;;;19.00;94.20;;;;;;5016531;28;20037;-77
2022/09/05 02:03:46;;;;;;;2.83;2.20;;;19.00;94.20;;;;;;5022979;28;20561;-77
2022/09/05 02:06:33;;;;;;;4.82;2.50;;;18.90;94.30;;;;;;5021212;28;20113;-77
2022/09/05 02:09:09;;;;;;;3.08;2.30;;;18.90;94.40;;;;;;5012079;28;20454;-77
2022/09/05 02:12:04;;;;;;;3.47;2.63;;;18.90;94.60;;;;;;5026305;28;20235;-77
2022/09/05 02:14:54;;;;;;;4.10;2.53;;;18.80;94.70;;;;;;5009678;28;20072;-77
2022/09/05 02:17:39;;;;;;;4.90;2.22;;;18.80;94.80;;;;;;5019564;28;20454;-77
2022/09/05 02:20:29;;;;;;;4.07;2.78;;;18.80;94.90;;;;;;5023820;28;20257;-77
2022/09/05 02:23:06;;;;;;;4.85;2.70;;;18.70;95.10;;;;;;5017833;28;20059;-77
2022/09/05 02:25:52;;;;;;;5.28;2.70;;;18.70;95.40;;;;;;5023304;28;20057;-77
2022/09/05 02:28:59;;;;;;;3.67;2.67;;;18.60;95.20;;;;;;5014166;28;20049;-77
2022/09/05 02:31:47;;;;;;;3.28;2.42;;;18.70;95.50;;;;;;5005112;28;20306;-77
2022/09/05 02:34:36;;;;;;;4.53;2.83;;;18.70;95.40;;;;;;5020755;28;20048;-77
2022/09/05 02:37:23;;;;;;;4.13;2.47;;;18.60;95.60;;;;;;5014874;28;20403;-77
2022/09/05 02:40:02;;;;;;;4.03;2.78;;;18.60;95.70;;;;;;5019708;28;20053;-77
2022/09/05 02:42:56;;;;;;;3.53;2.47;;;18.60;95.80;;;;;;5014337;28;20046;-77
2022/09/05 02:45:32;;;;;;;6.43;2.70;;;18.50;95.90;;;;;;5015395;28;20041;-77
2022/09/05 02:48:29;;;;;;;4.30;2.50;;;18.40;96.00;;;;;;5014615;28;20116;-77
2022/09/05 02:51:18;;;;;;;5.68;2.42;;;18.50;96.10;;;;;;5003957;28;20049;-78
2022/09/05 02:53:57;;;;;;;4.32;2.88;;;18.40;96.20;;;;;;5019268;28;20132;-77
2022/09/05 02:56:44;;;;;;;3.72;2.53;;;18.40;96.30;;;;;;5015773;28;20045;-77
2022/09/05 02:59:30;;;;;;;3.88;2.60;;;18.40;96.40;;;;;;5014892;28;20041;-77
2022/09/05 03:02:21;;;;;;;4.22;3.10;;;18.40;96.80;;;;;;5020589;28;20051;-77
2022/09/05 03:04:54;;;;;;;4.03;2.78;;;18.30;96.70;;;;;;5001187;28;20491;-77
2022/09/05 03:07:50;;;;;;;4.47;2.72;;;18.30;96.70;;;;;;5016136;28;20186;-77
2022/09/05 03:10:39;;;;;;;4.63;2.60;;;18.30;97.20;;;;;;5035893;28;20056;-77
2022/09/05 03:13:26;;;;;;;4.05;2.75;;;18.20;97.10;;;;;;5021375;28;20629;-77
2022/09/05 03:16:31;;;;;;;4.38;2.92;;;18.20;97.20;;;;;;5019665;28;20351;-77
2022/09/05 03:19:34;;;;;;;3.63;2.60;;;18.20;97.60;;;;;;5017977;28;20188;-77
2022/09/05 03:22:27;;;;;;;5.75;2.90;;;18.10;97.70;;;;;;5021986;28;20033;-77
2022/09/05 03:25:14;;;;;;;5.18;3.40;;;18.10;97.70;;;;;;5021855;28;20079;-77
2022/09/05 03:28:34;;;;;;;4.57;3.40;;;18.10;97.80;;;;;;5015564;28;20125;-77
2022/09/05 03:31:15;;;;;;;4.03;2.72;;;18.00;98.30;;;;;;4984387;28;20045;-77
2022/09/05 03:34:08;;;;;;;4.60;3.00;;;18.00;98.30;;;;;;5015586;28;20434;-77
2022/09/05 03:36:48;;;;;;;4.45;3.17;;;18.00;98.40;;;;;;5006544;28;20056;-77
2022/09/05 03:39:36;;;;;;;3.50;2.65;;;17.90;98.50;;;;;;5017420;28;20041;-77
2022/09/05 03:42:15;;;;;;;4.60;3.10;;;17.90;98.70;;;;;;5021168;28;20081;-77
2022/09/05 03:45:02;;;;;;;4.47;2.97;;;17.90;99.00;;;;;;5020739;28;20128;-77
2022/09/05 03:47:47;;;;;;;5.53;3.35;;;17.80;99.10;;;;;;5016285;28;20121;-77
2022/09/05 03:50:22;;;;;;;5.20;3.58;;;17.80;99.10;;;;;;5017416;28;20535;-77
2022/09/05 03:53:16;;;;;;;3.70;3.00;;;17.80;99.20;;;;;;5018100;28;20321;-77
2022/09/05 03:56:19;;;;;;;4.13;3.10;;;17.80;99.40;;;;;;5018307;28;20029;-77
2022/09/05 03:59:06;;;;;;;5.20;2.78;;;17.70;99.70;;;;;;5011129;28;20041;-77
2022/09/05 04:01:34;;;;;;;;;;;17.70;99.80;;;;;;5018925;28;20108;-77
2022/09/05 04:04:28;;;;;;;6.03;2.83;;;17.60;99.90;;;;;;5018227;28;20084;-77
2022/09/05 04:06:58;;;;;;;4.43;3.58;;;17.60;99.90;;;;;;5010585;28;20037;-77
2022/09/05 04:09:44;;;;;;;5.50;3.20;;;17.60;99.90;;;;;;5019894;28;20060;-77
2022/09/05 04:12:19;;;;;;;6.13;3.38;;;17.60;99.90;;;;;;5016789;28;20137;-77
2022/09/05 04:15:16;;;;;;;5.78;3.55;;;17.50;99.90;;;;;;5021016;28;20117;-77
2022/09/05 04:17:46;;;;;;;6.95;3.40;;;17.50;99.90;;;;;;4990546;28;20041;-77
2022/09/05 04:20:41;;;;;;;6.63;3.88;;;17.50;99.90;;;;;;5019169;28;21596;-77
2022/09/05 04:23:07;;;;;;;4.82;3.13;;;17.50;99.90;;;;;;5031719;28;20057;-77
2022/09/05 04:25:44;;;;;;;3.85;2.72;;;17.40;99.90;;;;;;5020002;28;20052;-77
2022/09/05 04:28:29;;;;;;;4.78;3.20;;;17.40;99.90;;;;;;5012730;28;20045;-77
2022/09/05 04:31:03;;;;;;;5.47;3.50;;;17.40;99.90;;;;;;5015519;28;20458;-77
2022/09/05 04:33:44;;;;;;;5.03;3.22;;;17.40;99.90;;;;;;4997703;28;20098;-77
2022/09/05 04:36:25;;;;;;;5.50;3.53;;;17.40;99.90;;;;;;5023004;28;20105;-77
2022/09/05 04:39:16;;;;;;;5.82;4.00;;;17.30;99.90;;;;;;5016362;28;20507;-77
2022/09/05 04:41:53;;;;;;;5.15;3.53;;;17.30;99.90;;;;;;5021062;28;20524;-77
2022/09/05 04:44:41;;;;;;;4.93;3.67;;;17.30;99.90;;;;;;5018018;28;20052;-77
2022/09/05 04:47:38;;;;;;;5.03;3.38;;;17.30;99.90;;;;;;5014884;28;20079;-78
2022/09/05 04:50:12;;;;;;;6.20;3.72;;;17.30;99.90;;;;;;5018683;28;20224;-78
2022/09/05 04:52:59;;;;;;;7.68;3.88;;;17.30;99.90;;;;;;5014940;28;20084;-77
2022/09/05 04:55:50;;;;;;;13.40;3.75;;;17.30;99.90;;;;;;5015411;28;20072;-77
2022/09/05 04:58:35;;;;;;;4.82;3.30;;;17.20;99.90;;;;;;5015886;28;20104;-78
2022/09/05 05:01:05;;;;;;;5.05;3.75;;;17.20;99.90;;;;;;5011252;28;20147;-77
2022/09/05 05:03:33;;;;;;;4.47;3.60;;;17.20;99.90;;;;;;5018108;28;20456;-79
2022/09/05 05:06:09;;;;;;;5.80;3.70;;;17.20;99.90;;;;;;5011482;28;20940;-77
2022/09/05 05:08:50;;;;;;;5.75;4.03;;;17.20;99.90;;;;;;5001188;28;20050;-77
2022/09/05 05:11:28;;;;;;;5.10;3.92;;;17.10;99.90;;;;;;5014220;28;20144;-77
2022/09/05 05:14:06;;;;;;;5.45;3.72;;;17.10;99.90;;;;;;5017219;28;20285;-77
2022/09/05 05:16:47;;;;;;;4.97;3.70;;;17.10;99.90;;;;;;5019336;28;20072;-78
2022/09/05 05:19:38;;;;;;;7.55;4.25;;;17.00;99.90;;;;;;5015952;28;20115;-77
2022/09/05 05:22:04;;;;;;;6.32;4.10;;;17.00;99.90;;;;;;5013677;28;20057;-77
2022/09/05 05:24:34;;;;;;;;;;;17.10;99.90;;;;;;5013253;28;20048;-77
2022/09/05 05:27:10;;;;;;;5.88;3.38;;;17.10;99.90;;;;;;5020221;28;19939;-77
2022/09/05 05:29:54;;;;;;;5.05;3.65;;;17.00;99.90;;;;;;5028853;22;20049;-69
2022/09/05 05:32:23;;;;;;;6.68;4.07;;;17.00;99.90;;;;;;5014136;28;20045;-69
2022/09/05 05:34:57;;;;;;;8.90;4.10;;;17.10;99.90;;;;;;5017271;28;20049;-69
2022/09/05 05:37:43;;;;;;;4.65;3.55;;;17.00;99.90;;;;;;5017108;28;20445;-69
2022/09/05 05:40:24;;;;;;;5.38;4.13;;;17.10;99.90;;;;;;5006151;28;20046;-70
2022/09/05 05:42:50;;;;;;;5.57;3.95;;;17.10;99.90;;;;;;5015671;28;20176;-71
2022/09/05 05:45:28;;;;;;;5.80;4.18;;;17.10;99.90;;;;;;5016835;28;20049;-70
2022/09/05 05:48:03;;;;;;;5.47;4.25;;;17.20;99.90;;;;;;5012017;28;20045;-72
2022/09/05 05:51:14;;;;;;;5.70;4.15;;;17.20;99.90;;;;;;5007329;28;20152;-70
2022/09/05 05:54:01;;;;;;;5.97;3.95;;;17.20;99.90;;;;;;5018185;28;20107;-69
2022/09/05 05:56:30;;;;;;;;;;;17.20;99.90;;;;;;5019884;28;20395;-69
2022/09/05 05:59:17;;;;;;;6.10;3.90;;;17.20;99.90;;;;;;5007645;28;19917;-69
2022/09/05 06:01:52;;;;;;;7.15;4.30;;;17.30;99.90;;;;;;5017064;28;20045;-69
2022/09/05 06:04:27;;;;;;;7.00;4.28;;;17.30;99.90;;;;;;5003953;28;20046;-69
2022/09/05 06:07:04;;;;;;;8.95;4.10;;;17.40;99.90;;;;;;5007004;28;20045;-69
2022/09/05 06:10:01;;;;;;;6.22;4.28;;;17.40;99.90;;;;;;5017881;28;20041;-69
2022/09/05 06:12:42;;;;;;;6.80;4.10;;;17.40;99.90;;;;;;5014688;28;20080;-69
2022/09/05 06:15:24;;;;;;;6.20;4.57;;;17.50;99.90;;;;;;5021552;28;20045;-69
2022/09/05 06:18:24;;;;;;;5.65;4.30;;;17.60;99.90;;;;;;5021815;28;20033;-69
2022/09/05 06:21:07;;;;;;;5.65;4.32;;;17.60;99.90;;;;;;5023899;28;20109;-69
2022/09/05 06:24:03;;;;;;;6.38;4.32;;;17.70;99.90;;;;;;5014414;28;20076;-70
2022/09/05 06:26:48;;;;;;;6.22;4.18;;;17.70;99.90;;;;;;5020962;28;20082;-69
2022/09/05 06:29:41;;;;;;;5.07;3.85;;;17.80;99.90;;;;;;5020449;28;20484;-69
2022/09/05 06:32:38;;;;;;;6.25;4.30;;;17.90;99.90;;;;;;5018133;28;20116;-70
2022/09/05 06:35:25;;;;;;;9.43;4.75;;;17.90;99.90;;;;;;5020311;28;20143;-69
2022/09/05 06:37:51;;;;;;;4.93;4.05;;;18.00;99.90;;;;;;5018813;28;20076;-69
2022/09/05 06:40:19;;;;;;;4.90;4.07;;;18.10;99.90;;;;;;5026353;28;20425;-72
2022/09/05 06:43:04;;;;;;;6.78;5.22;;;18.10;99.90;;;;;;5008558;28;20053;-71
2022/09/05 06:45:56;;;;;;;7.10;4.40;;;18.20;99.90;;;;;;5017881;28;20471;-70
2022/09/05 06:48:34;;;;;;;6.00;4.47;;;18.20;99.90;;;;;;5019281;28;20530;-71
2022/09/05 06:51:36;;;;;;;5.85;3.95;;;18.30;99.90;;;;;;5020562;28;20460;-71
2022/09/05 06:54:16;;;;;;;5.85;3.83;;;18.40;99.90;;;;;;5012015;28;20140;-71
2022/09/05 06:57:09;;;;;;;5.20;4.03;;;18.40;99.90;;;;;;5020244;28;20076;-71
2022/09/05 07:00:02;;;;;;;7.00;4.50;;;18.50;99.90;;;;;;5017750;28;20052;-71
2022/09/05 07:02:33;;;;;;;6.15;4.35;;;18.60;99.90;;;;;;5021240;28;20152;-70
2022/09/05 07:05:01;;;;;;;5.95;4.25;;;18.60;99.90;;;;;;5021024;28;20042;-71
2022/09/05 07:07:36;;;;;;;6.82;4.18;;;18.70;99.90;;;;;;5020449;28;20049;-71
2022/09/05 07:10:16;;;;;;;5.80;4.07;;;18.80;99.90;;;;;;5009614;28;20410;-71
2022/09/05 07:13:15;;;;;;;7.90;4.03;;;18.80;99.90;;;;;;5022662;28;20132;-71
2022/09/05 07:16:16;;;;;;;7.85;3.83;;;18.90;99.90;;;;;;5018345;28;20041;-71
2022/09/05 07:19:13;;;;;;;6.03;3.88;;;19.00;99.90;;;;;;5017395;28;20078;-71
2022/09/05 07:21:44;;;;;;;8.75;4.80;;;19.10;99.90;;;;;;5018497;28;20053;-71
2022/09/05 07:24:15;;;;;;;6.82;4.15;;;19.10;99.90;;;;;;5024763;28;20124;-71
2022/09/05 07:26:45;;;;;;;6.78;4.15;;;19.30;99.90;;;;;;5011937;28;20044;-71
2022/09/05 07:29:18;;;;;;;9.48;4.03;;;19.40;99.90;;;;;;5018487;28;20052;-71
2022/09/05 07:31:49;;;;;;;9.90;5.15;;;19.40;99.90;;;;;;5017075;28;20123;-71
2022/09/05 07:34:26;;;;;;;5.85;4.32;;;19.50;99.90;;;;;;5021235;28;21558;-71
2022/09/05 07:36:55;;;;;;;5.30;4.18;;;19.60;99.90;;;;;;5020931;28;20192;-71
2022/09/05 07:39:29;;;;;;;5.38;3.72;;;19.70;99.90;;;;;;5023084;28;21326;-71
2022/09/05 07:41:59;;;;;;;9.05;3.70;;;19.80;99.90;;;;;;5013366;28;20045;-71
2022/09/05 07:44:29;;;;;;;5.80;3.72;;;19.90;99.90;;;;;;5006896;28;20078;-71
2022/09/05 07:47:05;;;;;;;6.38;4.47;;;20.00;99.90;;;;;;5020458;28;20467;-71
2022/09/05 07:49:34;;;;;;;7.25;4.20;;;20.10;99.90;;;;;;5019883;28;20098;-71
2022/09/05 07:52:22;;;;;;;6.32;4.65;;;20.20;99.90;;;;;;5018141;28;20556;-71
2022/09/05 07:54:51;;;;;;;6.18;4.18;;;20.30;99.90;;;;;;5016363;28;20037;-71
2022/09/05 07:57:22;;;;;;;5.20;4.38;;;20.40;99.90;;;;;;5012566;28;20552;-72
2022/09/05 07:59:53;;;;;;;7.05;4.75;;;20.40;99.90;;;;;;5018480;28;20069;-71
2022/09/05 08:02:19;;;;;;;6.50;3.97;;;20.50;99.90;;;;;;5019835;28;20203;-72
2022/09/05 08:04:45;;;;;;;4.57;3.58;;;20.60;99.90;;;;;;5022351;28;20515;-71
2022/09/05 08:07:19;;;;;;;4.82;3.70;;;20.70;99.90;;;;;;5019777;28;20491;-71
2022/09/05 08:09:56;;;;;;;5.18;3.75;;;20.80;99.90;;;;;;5021909;28;20034;-71
2022/09/05 08:12:29;;;;;;;6.32;3.90;;;20.90;99.90;;;;;;4998348;28;20372;-71
2022/09/05 08:15:07;;;;;;;6.78;4.13;;;20.90;99.90;;;;;;5021748;28;20041;-72
2022/09/05 08:17:42;;;;;;;6.43;4.03;;;21.00;99.90;;;;;;5016770;28;20087;-72
2022/09/05 08:20:20;;;;;;;4.85;3.35;;;21.10;99.90;;;;;;5015658;28;20041;-71
2022/09/05 08:22:52;;;;;;;7.13;3.78;;;21.20;99.90;;;;;;5017448;28;20388;-71
2022/09/05 08:25:26;;;;;;;6.10;4.22;;;21.30;99.90;;;;;;5013507;28;20172;-71
2022/09/05 08:28:21;;;;;;;5.03;3.50;;;21.30;99.90;;;;;;5026274;28;20151;-71
2022/09/05 08:30:58;;;;;;;5.35;4.00;;;21.40;99.90;;;;;;5018538;28;20057;-71
2022/09/05 08:33:31;;;;;;;7.78;4.30;;;21.50;99.90;;;;;;5020646;28;20087;-71
2022/09/05 08:36:02;;;;;;;4.28;3.42;;;21.70;99.90;;;;;;5015364;28;20172;-71
2022/09/05 08:38:33;;;;;;;5.55;3.75;;;21.80;99.90;;;;;;5019442;28;20083;-71
2022/09/05 08:41:24;;;;;;;5.43;3.53;;;21.90;99.90;;;;;;5019288;28;20072;-71
2022/09/05 08:43:53;;;;;;;6.00;3.47;;;21.90;99.90;;;;;;5013894;28;20069;-72
2022/09/05 08:46:43;;;;;;;4.00;3.13;;;22.00;99.90;;;;;;5011547;28;20085;-72
2022/09/05 08:49:30;;;;;;;5.13;4.03;;;22.10;99.90;;;;;;5018956;28;20049;-71
2022/09/05 08:52:34;;;;;;;4.85;3.63;;;22.20;99.90;;;;;;5016329;28;20048;-71
2022/09/05 08:55:25;;;;;;;7.10;3.40;;;22.30;99.90;;;;;;5014916;28;20041;-72
2022/09/05 08:58:01;;;;;;;5.60;3.40;;;22.50;99.90;;;;;;5019585;28;20029;-72
2022/09/05 09:00:35;;;;;;;5.03;3.47;;;22.60;99.90;;;;;;5017343;28;20518;-71
2022/09/05 09:03:19;;;;;;;6.75;3.83;;;22.70;99.90;;;;;;5020799;28;20486;-71
2022/09/05 09:05:54;;;;;;;3.97;3.05;;;22.80;99.90;;;;;;5013157;28;20046;-71
2022/09/05 09:08:39;;;;;;;4.78;2.83;;;22.90;99.90;;;;;;5015284;28;20440;-72
2022/09/05 09:11:11;;;;;;;5.70;3.30;;;23.00;99.90;;;;;;5012546;28;20068;-71
2022/09/05 09:13:52;;;;;;;6.13;3.00;;;23.10;99.90;;;;;;5015763;28;20132;-71
2022/09/05 09:16:18;;;;;;;5.65;3.15;;;23.30;99.90;;;;;;5016421;28;20049;-71
2022/09/05 09:18:46;;;;;;;;;;;23.40;99.90;;;;;;5017200;28;20064;-72
2022/09/05 09:21:22;;;;;;;6.28;3.40;;;23.50;99.90;;;;;;5019682;28;20201;-72
2022/09/05 09:24:23;;;;;;;4.65;2.90;;;23.60;99.90;;;;;;5017962;28;20045;-71
2022/09/05 09:27:00;;;;;;;4.88;2.88;;;23.70;99.80;;;;;;5015391;28;20140;-71
2022/09/05 09:29:28;;;;;;;6.18;2.63;;;23.80;99.70;;;;;;5013288;28;20140;-72
2022/09/05 09:32:08;;;;;;;6.30;2.47;;;23.90;99.50;;;;;;5021255;28;20052;-71
2022/09/05 09:34:46;;;;;;;4.13;3.00;;;24.00;99.30;;;;;;5025565;28;20068;-72
2022/09/05 09:37:39;;;;;;;6.00;3.40;;;24.20;99.10;;;;;;5018605;28;20041;-71
2022/09/05 09:40:17;;;;;;;4.05;2.67;;;24.30;98.90;;;;;;5021685;28;20076;-72
2022/09/05 09:43:00;;;;;;;4.70;2.78;;;24.30;98.50;;;;;;5031048;28;20050;-71
2022/09/05 09:46:01;;;;;;;3.50;2.70;;;24.50;98.20;;;;;;5020911;28;20053;-71
2022/09/05 09:48:44;;;;;;;3.13;2.33;;;24.60;97.90;;;;;;5022257;28;20044;-71
2022/09/05 09:51:29;;;;;;;3.38;2.30;;;24.70;97.60;;;;;;5025052;28;20137;-72
2022/09/05 09:54:06;;;;;;;3.53;2.17;;;24.80;97.40;;;;;;5018774;28;20410;-71
2022/09/05 09:57:07;;;;;;;4.07;2.50;;;24.90;97.20;;;;;;5023151;28;20034;-72
2022/09/05 10:00:22;;;;;;;4.05;2.42;;;25.10;96.90;;;;;;4991798;28;20140;-72
2022/09/05 10:03:22;;;;;;;3.10;2.33;;;25.20;96.30;;;;;;4964129;28;20129;-72
2022/09/05 10:05:58;;;;;;;3.40;2.42;;;25.30;96.40;;;;;;5023361;28;20313;-72
2022/09/05 10:08:45;;;;;;;3.90;2.38;;;25.40;96.20;;;;;;5023564;28;20354;-71
2022/09/05 10:11:29;;;;;;;;;;;25.50;95.00;;;;;;5017547;28;20050;-71
2022/09/05 10:14:20;;;;;;;3.53;2.45;;;25.70;94.30;;;;;;5015875;28;19932;-72
2022/09/05 10:17:09;;;;;;;5.30;2.35;;;25.80;94.90;;;;;;5009534;28;20115;-71
2022/09/05 10:20:14;;;;;;;2.60;1.90;;;25.90;94.70;;;;;;5017262;28;20037;-72
2022/09/05 10:22:54;;;;;;;2.80;2.00;;;26.10;93.00;;;;;;5020179;28;20115;-71
2022/09/05 10:25:50;;;;;;;2.88;1.88;;;26.30;93.60;;;;;;5016965;28;20041;-72
2022/09/05 10:28:34;;;;;;;3.05;2.13;;;26.40;93.10;;;;;;5004194;28;20136;-72
2022/09/05 10:31:11;;;;;;;4.97;2.00;;;26.50;93.00;;;;;;5019738;28;20038;-71
2022/09/05 10:33:45;;;;;;;3.88;1.95;;;26.60;92.50;;;;;;5011377;28;20376;-71
2022/09/05 10:36:31;;;;;;;2.80;1.67;;;26.70;92.10;;;;;;5006422;28;20046;-71
2022/09/05 10:39:27;;;;;;;2.37;1.67;;;26.90;91.30;;;;;;5030511;28;20518;-71
2022/09/05 10:41:54;;;;;;;2.90;1.98;;;26.90;91.50;;;;;;5009486;28;20045;-72
2022/09/05 10:44:42;;;;;;;3.60;1.85;;;27.10;91.00;;;;;;5027354;28;20482;-71
2022/09/05 10:47:18;;;;;;;3.05;1.75;;;27.20;90.40;;;;;;5020571;28;20078;-72
2022/09/05 10:49:49;;;;;;;3.33;1.90;;;27.30;89.50;;;;;;5029380;28;20095;-69
2022/09/05 10:52:32;;;;;;;2.78;1.50;;;27.40;88.60;;;;;;5029353;28;20392;-72
2022/09/05 10:55:17;;;;;;;3.25;1.65;;;27.50;88.60;;;;;;5029789;28;20411;-71
2022/09/05 10:58:03;;;;;;;3.58;1.90;;;27.60;88.10;;;;;;5023423;28;20546;-72
2022/09/05 11:00:39;;;;;;;2.65;1.70;;;27.60;86.60;;;;;;5030411;28;20128;-72
2022/09/05 11:03:12;;;;;;;3.45;1.52;;;27.60;86.30;;;;;;5024078;28;20111;-71
2022/09/05 11:05:50;;;;;;;5.47;1.77;;;27.70;86.60;;;;;;5002935;28;20344;-71
2022/09/05 11:08:43;;;;;;;8.25;1.83;;;27.70;85.80;;;;;;5019659;28;20057;-72
2022/09/05 11:11:21;;;;;;;5.32;2.08;;;27.90;84.60;;;;;;5014731;28;20470;-71
2022/09/05 11:13:49;;;;;;;5.38;2.05;;;28.00;84.60;;;;;;5014013;28;20475;-72
2022/09/05 11:16:24;;;;;;;4.18;1.90;;;28.10;83.40;;;;;;5012802;28;20107;-71
2022/09/05 11:19:06;;;;;;;2.25;1.45;;;28.20;82.30;;;;;;5016503;28;20124;-71
2022/09/05 11:21:40;;;;;;;3.67;1.92;;;28.30;81.00;;;;;;5018137;28;20289;-71
2022/09/05 11:24:26;;;;;;;4.00;1.20;;;28.30;81.20;;;;;;5016739;28;20041;-71
2022/09/05 11:27:04;;;;;;;2.20;1.27;;;28.30;80.10;;;;;;5014044;28;20046;-71
2022/09/05 11:29:38;;;;;;;3.53;1.63;;;28.30;79.30;;;;;;5011265;28;20473;-72
2022/09/05 11:32:35;;;;;;;2.83;1.30;;;28.40;79.60;;;;;;5012506;28;20049;-71
2022/09/05 11:35:18;;;;;;;3.42;1.35;;;28.40;79.50;;;;;;5018756;28;20175;-72
2022/09/05 11:38:08;;;;;;;2.28;1.25;;;28.40;77.90;;;;;;5014608;28;20467;-72
2022/09/05 11:41:14;;;;;;;2.95;1.20;;;28.30;78.20;;;;;;5013481;28;20053;-71
2022/09/05 11:44:04;;;;;;;2.72;1.35;;;28.40;78.20;;;;;;5015072;28;20283;-71
2022/09/05 11:46:47;;;;;;;1.80;1.13;;;28.50;76.70;;;;;;5009595;28;20423;-71
2022/09/05 11:50:01;;;;;;;4.43;1.30;;;28.70;76.50;;;;;;5009576;28;20120;-71
2022/09/05 11:52:52;;;;;;;6.00;1.33;;;28.90;74.60;;;;;;4916180;28;20276;-72
2022/09/05 11:55:56;;;;;;;3.22;1.83;;;28.90;74.10;;;;;;5010673;28;20077;-71
2022/09/05 11:58:51;;;;;;;2.30;1.45;;;28.80;74.00;;;;;;5019085;28;20121;-71
2022/09/05 12:01:53;;;;;;;2.42;1.38;;;28.70;73.40;;;;;;5013433;28;20053;-71
2022/09/05 12:04:27;;;;;;;2.97;1.70;;;28.70;73.20;;;;;;5012017;28;20859;-71
2022/09/05 12:07:08;;;;;;;3.28;1.40;;;28.60;73.60;;;;;;5010589;28;20227;-70
2022/09/05 12:10:12;;;;;;;3.55;1.70;;;28.50;73.40;;;;;;5010095;28;20381;-71
2022/09/05 12:12:46;;;;;;;1.98;1.20;;;28.50;72.90;;;;;;4961943;28;20046;-71
2022/09/05 12:15:32;;;;;;;3.15;1.42;;;28.40;72.70;;;;;;5003553;28;20057;-71
2022/09/05 12:18:10;;;;;;;1.70;1.27;;;28.30;74.00;;;;;;5017183;28;20037;-71
2022/09/05 12:21:02;;;;;;;4.50;1.55;;;28.30;74.40;;;;;;5018101;28;20068;-72
2022/09/05 12:23:54;;;;;;;3.30;1.17;;;28.20;71.60;;;;;;5018548;28;20041;-71
2022/09/05 12:26:37;;;;;;;1.58;1.05;;;28.30;73.10;;;;;;5018123;28;20049;-71
2022/09/05 12:29:14;;;;;;;2.42;1.25;;;28.40;71.40;;;;;;5008482;28;20469;-71
2022/09/05 12:31:49;;;;;;;2.05;1.38;;;28.50;70.30;;;;;;5011366;28;20112;-71
2022/09/05 12:34:49;;;;;;;2.92;1.20;;;28.60;71.30;;;;;;5016024;28;20051;-71
2022/09/05 12:37:38;;;;;;;1.77;1.02;;;28.80;71.30;;;;;;5013061;28;20492;-71
2022/09/05 12:40:32;;;;;;;1.70;1.30;;;28.90;71.20;;;;;;5005097;28;20514;-71
2022/09/05 12:43:22;;;;;;;2.90;1.48;;;29.10;69.50;;;;;;5023954;28;20519;-71
2022/09/05 12:46:02;;;;;;;2.28;1.30;;;29.30;69.30;;;;;;5003227;28;20041;-72
2022/09/05 12:48:35;;;;;;;1.85;1.45;;;29.40;68.70;;;;;;5022196;28;20463;-72
2022/09/05 12:51:16;;;;;;;2.50;1.30;;;29.60;68.90;;;;;;5018028;28;20475;-71
2022/09/05 12:53:49;;;;;;;1.58;1.08;;;29.70;68.90;;;;;;5011711;28;20103;-71
2022/09/05 12:56:35;;;;;;;1.85;1.33;;;29.80;67.40;;;;;;5016224;28;20458;-72
2022/09/05 12:59:04;;;;;;;2.45;1.23;;;29.80;65.20;;;;;;5013174;28;20068;-71
2022/09/05 13:01:32;;;;;;;2.22;1.20;;;29.80;65.40;;;;;;5015238;28;20691;-71
2022/09/05 13:04:20;;;;;;;1.85;1.13;;;29.90;65.70;;;;;;5016050;28;20543;-72
2022/09/05 13:06:59;;;;;;;1.88;1.10;;;29.90;64.50;;;;;;5013956;28;20049;-71
2022/09/05 13:09:40;;;;;;;2.33;1.23;;;30.10;63.90;;;;;;5014276;28;20080;-71
2022/09/05 13:12:18;;;;;;;1.73;1.00;;;30.20;63.00;;;;;;5012102;28;20045;-72
2022/09/05 13:15:14;;;;;;;1.73;1.00;;;30.30;61.20;;;;;;5014795;28;20094;-71
2022/09/05 13:17:42;;;;;;;1.45;0.90;;;30.20;57.50;;;;;;5009755;28;20152;-72
2022/09/05 13:20:50;;;;;;;3.75;1.40;;;30.10;59.60;;;;;;5009757;28;20075;-71
2022/09/05 13:23:34;;;;;;;1.65;0.88;;;30.10;59.60;;;;;;4977312;28;20822;-71
2022/09/05 13:26:22;;;;;;;2.60;1.20;;;30.30;60.40;;;;;;5013948;28;20084;-72
2022/09/05 13:28:55;;;;;;;1.83;0.90;;;30.50;59.80;;;;;;5014520;28;20053;-71
2022/09/05 13:31:39;;;;;;;2.75;1.20;;;30.70;58.90;;;;;;5014915;28;20391;-71
2022/09/05 13:34:13;;;;;;;2.50;1.23;;;30.90;58.70;;;;;;5005779;28;20111;-71
2022/09/05 13:37:05;;;;;;;1.98;1.20;;;31.00;58.70;;;;;;5016474;28;20056;-72
2022/09/05 13:39:44;;;;;;;2.47;1.25;;;31.10;59.30;;;;;;5004379;28;20309;-71
2022/09/05 13:42:18;;;;;;;1.65;1.00;;;31.30;57.50;;;;;;5014264;28;20051;-72
2022/09/05 13:44:46;;;;;;;2.70;1.20;;;31.40;58.00;;;;;;5017230;28;20057;-71
2022/09/05 13:47:35;;;;;;;2.75;1.25;;;31.50;56.90;;;;;;5009993;28;20535;-71
2022/09/05 13:50:27;;;;;;;2.05;1.10;;;31.60;56.80;;;;;;5005679;28;20049;-72
2022/09/05 13:53:25;;;;;;;2.25;1.35;;;31.60;56.50;;;;;;5012046;28;20041;-72
2022/09/05 13:55:59;;;;;;;2.67;1.05;;;31.60;56.20;;;;;;5008615;28;20392;-72
2022/09/05 13:58:42;;;;;;;1.70;1.10;;;31.70;56.00;;;;;;5012062;28;20151;-71
2022/09/05 14:01:46;;;;;;;1.45;0.90;;;31.70;56.40;;;;;;5015274;28;20428;-72
2022/09/05 14:04:34;;;;;;;2.08;1.17;;;31.80;55.60;;;;;;5010418;28;20542;-71
2022/09/05 14:07:26;;;;;;;2.20;1.20;;;31.70;56.10;;;;;;5013948;28;20496;-71
2022/09/05 14:10:10;;;;;;;2.40;1.10;;;31.70;54.80;;;;;;5011923;28;20492;-71